createdAt,value
2022-12-25T00:00:21.132Z,14.43
2022-12-25T00:03:09.619Z,12.61
2022-12-25T00:05:40.609Z,11.30
2022-12-25T00:08:10.670Z,10.85
2022-12-25T00:10:44.732Z,13.08
2022-12-25T00:13:13.425Z,14.15
2022-12-25T00:15:42.046Z,12.88
2022-12-25T00:18:10.204Z,11.52
2022-12-25T00:20:38.218Z,10.86
2022-12-25T00:23:06.228Z,12.87
2022-12-25T00:25:34.249Z,14.35
2022-12-25T00:28:02.213Z,13.21
2022-12-25T00:30:30.251Z,11.77
2022-12-25T00:32:58.266Z,10.71
2022-12-25T00:35:26.272Z,10.53
2022-12-25T00:37:54.256Z,12.84
2022-12-25T00:40:22.272Z,14.11
2022-12-25T00:42:50.613Z,13.03
2022-12-25T00:45:18.737Z,11.65
2022-12-25T00:47:46.823Z,10.63
2022-12-25T00:50:14.803Z,10.32
2022-12-25T00:52:42.803Z,12.62
2022-12-25T00:55:10.892Z,14.25
2022-12-25T00:57:38.913Z,13.14
2022-12-25T01:00:08.242Z,11.71
2022-12-25T01:02:36.406Z,10.70
2022-12-25T01:05:05.909Z,9.99
2022-12-25T01:07:34.023Z,10.50
2022-12-25T01:10:20.717Z,13.13
2022-12-25T01:12:50.364Z,13.85
2022-12-25T01:15:18.909Z,12.49
2022-12-25T01:17:46.968Z,11.25
2022-12-25T01:20:16.690Z,10.38
2022-12-25T01:22:45.646Z,10.51
2022-12-25T01:25:13.731Z,13.10
2022-12-25T01:27:42.160Z,13.97
2022-12-25T01:30:11.181Z,12.67
2022-12-25T01:32:39.214Z,11.40
2022-12-25T01:35:07.498Z,10.47
2022-12-25T01:37:35.510Z,10.46
2022-12-25T01:40:04.287Z,12.96
2022-12-25T01:42:32.317Z,14.25
2022-12-25T01:45:42.318Z,12.97
2022-12-25T01:48:16.343Z,11.31
2022-12-25T01:50:47.804Z,10.40
2022-12-25T01:53:16.025Z,10.43
2022-12-25T01:55:47.372Z,12.89
2022-12-25T01:58:16.752Z,14.21
2022-12-25T02:00:45.712Z,13.01
2022-12-25T02:03:14.455Z,11.60
2022-12-25T02:05:43.506Z,10.55
2022-12-25T02:08:14.652Z,10.51
2022-12-25T02:10:44.973Z,12.69
2022-12-25T02:13:15.895Z,13.90
2022-12-25T02:16:03.063Z,12.58
2022-12-25T02:18:31.096Z,11.05
2022-12-25T02:21:26.584Z,10.11
2022-12-25T02:24:31.120Z,10.35
2022-12-25T02:27:25.803Z,13.31
2022-12-25T02:30:01.292Z,13.31
2022-12-25T02:33:24.106Z,11.81
2022-12-25T02:35:56.395Z,10.35
2022-12-25T02:38:33.500Z,10.23
2022-12-25T02:41:08.708Z,12.72
2022-12-25T02:43:59.624Z,14.02
2022-12-25T02:46:50.395Z,12.61
2022-12-25T02:49:43.101Z,11.11
2022-12-25T02:52:38.845Z,10.09
2022-12-25T02:55:31.115Z,10.34
2022-12-25T02:58:23.194Z,13.08
2022-12-25T03:01:16.742Z,13.83
2022-12-25T03:04:08.910Z,12.18
2022-12-25T03:06:44.914Z,10.79
2022-12-25T03:09:43.231Z,9.94
2022-12-25T03:12:53.670Z,10.36
2022-12-25T03:15:40.895Z,13.40
2022-12-25T03:18:17.255Z,13.54
2022-12-25T03:21:04.308Z,12.05
2022-12-25T03:23:54.517Z,10.80
2022-12-25T03:26:41.204Z,10.24
2022-12-25T03:29:09.217Z,12.51
2022-12-25T03:32:18.996Z,13.94
2022-12-25T03:35:24.226Z,12.41
2022-12-25T03:38:22.065Z,10.87
2022-12-25T03:41:31.127Z,9.93
2022-12-25T03:44:36.411Z,10.66
2022-12-25T03:47:35.767Z,13.62
2022-12-25T03:50:48.784Z,13.36
2022-12-25T03:53:40.590Z,11.54
2022-12-25T03:56:28.213Z,10.36
2022-12-25T03:59:23.449Z,10.50
2022-12-25T04:02:11.012Z,13.29
2022-12-25T04:04:58.388Z,13.60
2022-12-25T04:07:45.235Z,12.07
2022-12-25T04:10:32.028Z,10.86
2022-12-25T04:13:18.777Z,10.01
2022-12-25T04:16:05.614Z,10.35
2022-12-25T04:18:52.395Z,13.18
2022-12-25T04:21:39.061Z,13.82
2022-12-25T04:24:26.154Z,12.30
2022-12-25T04:27:12.915Z,11.08
2022-12-25T04:29:59.655Z,10.23
2022-12-25T04:32:46.350Z,10.58
2022-12-25T04:35:33.316Z,13.30
2022-12-25T04:38:01.316Z,13.80
2022-12-25T04:40:29.334Z,12.40
2022-12-25T04:42:57.330Z,11.18
2022-12-25T04:45:25.336Z,10.32
2022-12-25T04:47:53.399Z,9.69
2022-12-25T04:50:21.457Z,10.53
2022-12-25T04:52:49.521Z,13.02
2022-12-25T04:55:17.670Z,13.77
2022-12-25T04:57:45.701Z,12.39
2022-12-25T05:00:13.990Z,11.07
2022-12-25T05:02:42.292Z,10.14
2022-12-25T05:05:10.567Z,10.11
2022-12-25T05:07:38.576Z,12.42
2022-12-25T05:10:07.672Z,13.69
2022-12-25T05:12:35.651Z,12.54
2022-12-25T05:15:03.939Z,11.18
2022-12-25T05:17:32.017Z,10.14
2022-12-25T05:20:00.204Z,10.02
2022-12-25T05:22:28.253Z,12.19
2022-12-25T05:24:56.357Z,13.76
2022-12-25T05:27:24.377Z,12.76
2022-12-25T05:29:52.370Z,11.38
2022-12-25T05:32:20.376Z,10.37
2022-12-25T05:34:48.357Z,10.82
2022-12-25T05:37:16.336Z,13.13
2022-12-25T05:39:44.333Z,13.56
2022-12-25T05:42:12.340Z,12.20
2022-12-25T05:44:40.335Z,11.02
2022-12-25T05:47:08.414Z,10.15
2022-12-25T05:49:36.440Z,10.06
2022-12-25T05:52:04.619Z,12.39
2022-12-25T05:54:32.670Z,13.91
2022-12-25T05:57:00.725Z,12.91
2022-12-25T05:59:33.190Z,11.58
2022-12-25T06:02:01.395Z,10.58
2022-12-25T06:04:29.691Z,10.42
2022-12-25T06:06:57.698Z,12.66
2022-12-25T06:09:25.746Z,14.14
2022-12-25T06:11:53.733Z,12.99
2022-12-25T06:14:21.768Z,11.58
2022-12-25T06:16:53.870Z,10.57
2022-12-25T06:19:22.266Z,10.54
2022-12-25T06:21:54.523Z,13.05
2022-12-25T06:24:23.829Z,14.30
2022-12-25T06:26:52.095Z,13.06
2022-12-25T06:29:20.371Z,11.76
2022-12-25T06:31:48.399Z,10.87
2022-12-25T06:34:16.725Z,11.01
2022-12-25T06:36:44.726Z,13.47
2022-12-25T06:39:12.746Z,14.50
2022-12-25T06:41:40.765Z,13.26
2022-12-25T06:44:09.037Z,12.04
2022-12-25T06:46:37.021Z,11.15
2022-12-25T06:49:05.160Z,10.47
2022-12-25T06:51:34.303Z,10.95
2022-12-25T06:54:06.112Z,13.45
2022-12-25T06:56:34.832Z,14.12
2022-12-25T06:59:05.756Z,12.75
2022-12-25T07:01:47.751Z,11.43
2022-12-25T07:04:27.910Z,10.38
2022-12-25T07:06:55.921Z,10.54
2022-12-25T07:09:23.981Z,12.97
2022-12-25T07:11:52.853Z,14.20
2022-12-25T07:14:24.460Z,12.88
2022-12-25T07:16:52.918Z,11.38
2022-12-25T07:19:21.055Z,10.92
2022-12-25T07:21:49.082Z,13.01
2022-12-25T07:24:21.181Z,13.94
2022-12-25T07:26:50.980Z,12.63
2022-12-25T07:29:19.891Z,11.23
2022-12-25T07:31:48.077Z,10.23
2022-12-25T07:34:19.958Z,10.37
2022-12-25T07:36:48.002Z,12.89
2022-12-25T07:39:17.053Z,14.12
2022-12-25T07:41:45.108Z,12.90
2022-12-25T07:44:16.396Z,11.52
2022-12-25T07:46:44.460Z,10.52
2022-12-25T07:49:12.707Z,10.37
2022-12-25T07:51:40.819Z,12.62
2022-12-25T07:54:08.910Z,13.99
2022-12-25T07:56:36.975Z,12.90
2022-12-25T07:59:04.998Z,11.51
2022-12-25T08:01:33.270Z,10.54
2022-12-25T08:04:02.713Z,10.48
2022-12-25T08:06:33.543Z,12.82
2022-12-25T08:09:13.206Z,14.14
2022-12-25T08:11:46.978Z,12.83
2022-12-25T08:14:15.297Z,11.46
2022-12-25T08:16:43.543Z,10.69
2022-12-25T08:19:11.881Z,12.37
2022-12-25T08:21:39.913Z,14.30
2022-12-25T08:24:08.005Z,13.49
2022-12-25T08:26:36.038Z,12.06
2022-12-25T08:29:04.057Z,10.99
2022-12-25T08:31:37.260Z,10.80
2022-12-25T08:34:07.715Z,13.08
2022-12-25T08:36:35.861Z,14.36
2022-12-25T08:39:05.711Z,13.17
2022-12-25T08:41:36.604Z,11.84
2022-12-25T08:44:05.643Z,10.91
2022-12-25T08:46:33.772Z,10.80
2022-12-25T08:49:01.796Z,13.02
2022-12-25T08:51:29.828Z,14.29
2022-12-25T08:54:01.411Z,13.20
2022-12-25T08:56:29.606Z,11.70
2022-12-25T08:58:57.719Z,10.70
2022-12-25T09:01:25.919Z,10.72
2022-12-25T09:03:54.112Z,13.12
2022-12-25T09:06:22.175Z,14.45
2022-12-25T09:08:50.369Z,13.39
2022-12-25T09:11:20.252Z,12.01
2022-12-25T09:13:48.961Z,11.03
2022-12-25T09:16:22.128Z,11.04
2022-12-25T09:18:50.999Z,13.30
2022-12-25T09:21:19.704Z,14.35
2022-12-25T09:23:47.735Z,13.26
2022-12-25T09:26:17.919Z,12.00
2022-12-25T09:28:51.341Z,11.09
2022-12-25T09:31:22.791Z,10.42
2022-12-25T09:33:51.997Z,10.69
2022-12-25T09:36:23.569Z,13.18
2022-12-25T09:38:52.993Z,14.55
2022-12-25T09:41:24.001Z,13.37
2022-12-25T09:43:59.816Z,12.06
2022-12-25T09:46:37.098Z,11.05
2022-12-25T09:49:28.481Z,11.06
2022-12-25T09:52:06.702Z,13.67
2022-12-25T09:54:56.679Z,14.57
2022-12-25T09:57:25.794Z,13.09
2022-12-25T09:59:56.944Z,11.93
2022-12-25T10:02:28.154Z,11.06
2022-12-25T10:05:12.244Z,11.19
2022-12-25T10:07:44.501Z,13.71
2022-12-25T10:10:35.613Z,14.73
2022-12-25T10:13:03.591Z,13.26
2022-12-25T10:15:59.556Z,12.05
2022-12-25T10:18:50.437Z,11.04
2022-12-25T10:21:19.902Z,10.42
2022-12-25T10:24:14.167Z,11.97
2022-12-25T10:26:43.111Z,14.44
2022-12-25T10:29:19.848Z,14.55
2022-12-25T10:31:52.022Z,12.99
2022-12-25T10:34:20.043Z,11.76
2022-12-25T10:36:48.453Z,11.21
2022-12-25T10:39:18.922Z,13.13
2022-12-25T10:42:08.767Z,14.58
2022-12-25T10:44:36.815Z,13.24
2022-12-25T10:47:05.610Z,12.00
2022-12-25T10:49:39.048Z,11.46
2022-12-25T10:52:21.609Z,13.53
2022-12-25T10:54:49.983Z,14.88
2022-12-25T10:57:21.979Z,13.71
2022-12-25T10:59:58.356Z,12.28
2022-12-25T11:02:40.812Z,11.35
2022-12-25T11:05:32.111Z,11.69
2022-12-25T11:08:02.469Z,14.38
2022-12-25T11:10:44.053Z,14.18
2022-12-25T11:13:24.486Z,12.75
2022-12-25T11:16:04.669Z,11.70
2022-12-25T11:18:43.936Z,10.97
2022-12-25T11:21:37.165Z,11.12
2022-12-25T11:24:17.956Z,13.98
2022-12-25T11:26:55.686Z,14.65
2022-12-25T11:29:38.054Z,13.21
2022-12-25T11:32:16.397Z,12.00
2022-12-25T11:34:47.393Z,11.22
2022-12-25T11:37:40.801Z,10.67
2022-12-25T11:40:26.572Z,11.19
2022-12-25T11:43:04.124Z,14.13
2022-12-25T11:45:39.564Z,14.37
2022-12-25T11:48:19.678Z,12.97
2022-12-25T11:50:55.863Z,11.84
2022-12-25T11:53:40.134Z,13.19
2022-12-25T11:56:12.225Z,14.73
2022-12-25T11:59:18.048Z,13.77
2022-12-25T12:01:51.226Z,12.33
2022-12-25T12:04:27.596Z,11.78
2022-12-25T12:07:08.944Z,14.06
2022-12-25T12:09:48.559Z,14.98
2022-12-25T12:12:46.793Z,13.56
2022-12-25T12:15:31.134Z,12.16
2022-12-25T12:18:21.359Z,11.36
2022-12-25T12:21:21.350Z,10.76
2022-12-25T12:23:55.619Z,11.54
2022-12-25T12:26:26.168Z,14.41
2022-12-25T12:28:58.123Z,15.07
2022-12-25T12:31:36.586Z,13.73
2022-12-25T12:34:05.624Z,12.50
2022-12-25T12:36:36.608Z,11.75
2022-12-25T12:39:06.169Z,11.20
2022-12-25T12:41:46.474Z,10.78
2022-12-25T12:44:17.484Z,11.30
2022-12-25T12:46:54.630Z,14.19
2022-12-25T12:49:33.794Z,14.82
2022-12-25T12:52:25.530Z,13.41
2022-12-25T12:55:04.007Z,12.19
2022-12-25T12:57:39.355Z,11.47
2022-12-25T13:00:16.119Z,10.98
2022-12-25T13:03:05.405Z,11.60
2022-12-25T13:05:48.324Z,14.75
2022-12-25T13:08:43.532Z,14.75
2022-12-25T13:11:44.440Z,13.24
2022-12-25T13:14:17.535Z,12.15
2022-12-25T13:16:48.169Z,11.56
2022-12-25T13:19:22.018Z,11.12
2022-12-25T13:22:15.156Z,11.49
2022-12-25T13:24:43.141Z,14.53
2022-12-25T13:27:26.289Z,14.87
2022-12-25T13:29:54.394Z,13.51
2022-12-25T13:32:32.447Z,12.55
2022-12-25T13:35:01.050Z,11.82
2022-12-25T13:37:31.695Z,11.32
2022-12-25T13:40:03.837Z,10.91
2022-12-25T13:42:37.968Z,11.45
2022-12-25T13:45:13.459Z,14.38
2022-12-25T13:47:43.303Z,14.81
2022-12-25T13:50:25.458Z,13.51
2022-12-25T13:52:57.585Z,12.39
2022-12-25T13:55:30.647Z,11.67
2022-12-25T13:58:02.309Z,11.13
2022-12-25T14:00:45.221Z,10.70
2022-12-25T14:03:23.990Z,11.38
2022-12-25T14:06:15.362Z,14.23
2022-12-25T14:08:44.675Z,14.20
2022-12-25T14:11:15.995Z,12.93
2022-12-25T14:13:46.280Z,11.95
2022-12-25T14:16:19.566Z,11.26
2022-12-25T14:18:53.617Z,10.75
2022-12-25T14:21:28.065Z,10.99
2022-12-25T14:23:56.486Z,13.65
2022-12-25T14:26:34.178Z,14.28
2022-12-25T14:29:05.015Z,12.97
2022-12-25T14:31:33.896Z,11.92
2022-12-25T14:34:04.689Z,11.19
2022-12-25T14:36:34.002Z,10.64
2022-12-25T14:39:05.608Z,10.20
2022-12-25T14:41:41.297Z,10.54
2022-12-25T14:44:28.030Z,13.25
2022-12-25T14:47:13.412Z,13.56
2022-12-25T14:49:41.971Z,12.15
2022-12-25T14:52:37.894Z,11.18
2022-12-25T14:55:08.942Z,10.39
2022-12-25T14:57:41.208Z,9.90
2022-12-25T15:00:21.473Z,10.28
2022-12-25T15:02:51.651Z,13.06
2022-12-25T15:05:27.069Z,13.44
2022-12-25T15:08:13.227Z,12.10
2022-12-25T15:13:30.871Z,10.10
2022-12-25T15:16:12.356Z,9.56
2022-12-25T15:18:43.639Z,10.30
2022-12-25T15:21:28.773Z,13.03
2022-12-25T15:23:58.812Z,13.14
2022-12-25T15:26:28.695Z,11.83
2022-12-25T15:28:57.291Z,10.81
2022-12-25T15:31:28.148Z,10.10
2022-12-25T15:33:58.921Z,9.57
2022-12-25T15:36:28.052Z,9.75
2022-12-25T15:38:56.183Z,12.35
2022-12-25T15:41:49.493Z,13.38
2022-12-25T15:44:18.208Z,11.95
2022-12-25T15:46:46.789Z,10.85
2022-12-25T15:49:16.110Z,10.09
2022-12-25T15:51:44.936Z,9.54
2022-12-25T15:54:13.250Z,9.67
2022-12-25T15:56:54.218Z,12.27
2022-12-25T15:59:23.182Z,13.30
2022-12-25T16:01:56.784Z,12.05
2022-12-25T16:04:26.825Z,10.91
2022-12-25T16:06:58.572Z,10.11
2022-12-25T16:09:27.776Z,9.52
2022-12-25T16:11:55.790Z,9.82
2022-12-25T16:14:23.791Z,12.53
2022-12-25T16:16:51.781Z,13.35
2022-12-25T16:19:19.812Z,12.06
2022-12-25T16:21:47.920Z,10.90
2022-12-25T16:24:16.727Z,10.08
2022-12-25T16:26:44.771Z,9.46
2022-12-25T16:29:12.879Z,8.98
2022-12-25T16:31:41.564Z,9.17
2022-12-25T16:34:10.342Z,11.91
2022-12-25T16:36:38.421Z,12.94
2022-12-25T16:39:06.476Z,11.71
2022-12-25T16:41:34.682Z,10.57
2022-12-25T16:44:09.648Z,9.75
2022-12-25T16:46:39.695Z,9.12
2022-12-25T16:49:07.860Z,8.65
2022-12-25T16:51:35.876Z,9.10
2022-12-25T16:54:04.042Z,11.96
2022-12-25T16:56:32.571Z,12.88
2022-12-25T16:59:01.195Z,11.62
2022-12-25T17:01:29.875Z,10.47
2022-12-25T17:04:01.789Z,9.65
2022-12-25T17:06:29.999Z,9.06
2022-12-25T17:09:00.350Z,9.15
2022-12-25T17:11:30.385Z,12.04
2022-12-25T17:14:04.515Z,13.45
2022-12-25T17:16:37.411Z,12.15
2022-12-25T17:19:19.527Z,10.90
2022-12-25T17:21:47.685Z,10.01
2022-12-25T17:24:16.244Z,9.41
2022-12-25T17:26:44.916Z,10.00
2022-12-25T17:29:19.986Z,12.91
2022-12-25T17:31:50.884Z,13.43
2022-12-25T17:34:19.327Z,12.05
2022-12-25T17:36:47.806Z,10.91
2022-12-25T17:39:15.992Z,10.13
2022-12-25T17:41:43.996Z,9.53
2022-12-25T17:44:12.054Z,9.87
2022-12-25T17:46:40.202Z,12.70
2022-12-25T17:49:15.259Z,13.28
2022-12-25T17:51:43.591Z,11.88
2022-12-25T17:54:12.043Z,10.74
2022-12-25T17:56:40.233Z,9.95
2022-12-25T17:59:10.590Z,9.37
2022-12-25T18:01:40.188Z,8.88
2022-12-25T18:04:08.505Z,9.49
2022-12-25T18:06:37.401Z,12.49
2022-12-25T18:09:06.952Z,13.17
2022-12-25T18:11:39.819Z,11.81
2022-12-25T18:14:11.514Z,10.61
2022-12-25T18:16:42.270Z,9.81
2022-12-25T18:19:11.950Z,9.22
2022-12-25T18:21:40.125Z,8.74
2022-12-25T18:24:09.307Z,9.11
2022-12-25T18:26:37.440Z,12.06
2022-12-25T18:29:07.094Z,12.98
2022-12-25T18:31:36.153Z,11.67
2022-12-25T18:34:05.206Z,10.48
2022-12-25T18:36:33.363Z,9.67
2022-12-25T18:39:01.469Z,9.07
2022-12-25T18:41:30.426Z,9.38
2022-12-25T18:44:00.192Z,12.27
2022-12-25T18:46:28.665Z,13.04
2022-12-25T18:48:57.777Z,11.70
2022-12-25T18:51:29.931Z,10.52
2022-12-25T18:54:01.834Z,9.66
2022-12-25T18:56:29.845Z,9.06
2022-12-25T18:58:59.968Z,9.32
2022-12-25T19:01:28.228Z,12.21
2022-12-25T19:04:04.103Z,13.08
2022-12-25T19:06:35.187Z,11.68
2022-12-25T19:09:09.216Z,10.49
2022-12-25T19:11:45.868Z,9.65
2022-12-25T19:14:15.579Z,9.04
2022-12-25T19:16:44.604Z,9.30
2022-12-25T19:19:14.206Z,12.11
2022-12-25T19:21:42.234Z,12.89
2022-12-25T19:24:10.357Z,11.56
2022-12-25T19:26:40.756Z,10.38
2022-12-25T19:29:08.894Z,9.54
2022-12-25T19:31:38.374Z,8.93
2022-12-25T19:34:07.233Z,9.14
2022-12-25T19:36:35.711Z,11.95
2022-12-25T19:39:05.722Z,12.84
2022-12-25T19:41:34.851Z,11.49
2022-12-25T19:44:03.500Z,10.32
2022-12-25T19:46:34.680Z,9.50
2022-12-25T19:49:06.408Z,8.87
2022-12-25T19:51:36.671Z,8.36
2022-12-25T19:54:06.031Z,8.71
2022-12-25T19:56:34.818Z,11.58
2022-12-25T19:59:03.158Z,12.56
2022-12-25T20:01:31.641Z,11.26
2022-12-25T20:04:00.359Z,10.05
2022-12-25T20:06:32.104Z,9.22
2022-12-25T20:09:07.264Z,8.60
2022-12-25T20:11:36.275Z,8.87
2022-12-25T20:14:06.158Z,11.69
2022-12-25T20:16:37.707Z,12.52
2022-12-25T20:19:06.879Z,11.17
2022-12-25T20:21:35.117Z,10.01
2022-12-25T20:24:03.680Z,9.19
2022-12-25T20:26:32.288Z,8.56
2022-12-25T20:29:00.456Z,8.74
2022-12-25T20:31:34.400Z,11.50
2022-12-25T20:34:11.406Z,12.49
2022-12-25T20:36:39.804Z,11.04
2022-12-25T20:39:10.158Z,9.85
2022-12-25T20:41:39.740Z,9.02
2022-12-25T20:44:10.309Z,8.41
2022-12-25T20:46:38.995Z,8.81
2022-12-25T20:49:07.111Z,11.78
2022-12-25T20:51:35.766Z,12.77
2022-12-25T20:54:09.425Z,11.42
2022-12-25T20:56:37.602Z,10.14
2022-12-25T20:59:05.734Z,9.29
2022-12-25T21:01:33.850Z,9.35
2022-12-25T21:04:02.168Z,12.06
2022-12-25T21:06:30.363Z,12.93
2022-12-25T21:08:58.416Z,11.58
2022-12-25T21:11:27.240Z,10.37
2022-12-25T21:13:55.339Z,9.50
2022-12-25T21:16:24.444Z,8.88
2022-12-25T21:18:53.980Z,9.26
2022-12-25T21:21:22.421Z,12.18
2022-12-25T21:23:51.082Z,12.89
2022-12-25T21:26:26.935Z,11.53
2022-12-25T21:28:57.633Z,10.28
2022-12-25T21:31:26.553Z,9.44
2022-12-25T21:33:56.055Z,8.82
2022-12-25T21:36:31.222Z,9.23
2022-12-25T21:39:02.276Z,12.12
2022-12-25T21:41:32.055Z,12.91
2022-12-25T21:44:01.139Z,11.51
2022-12-25T21:46:29.629Z,10.28
2022-12-25T21:48:58.838Z,9.41
2022-12-25T21:51:48.533Z,8.75
2022-12-25T21:54:17.808Z,9.62
2022-12-25T21:56:47.508Z,12.56
2022-12-25T21:59:21.364Z,12.69
2022-12-25T22:01:51.737Z,11.22
2022-12-25T22:04:22.275Z,10.07
2022-12-25T22:07:09.447Z,9.27
2022-12-25T22:09:37.891Z,8.55
2022-12-25T22:12:31.935Z,8.82
2022-12-25T22:15:06.790Z,12.15
2022-12-25T22:17:58.581Z,13.15
2022-12-25T22:20:30.780Z,11.50
2022-12-25T22:22:58.857Z,10.17
2022-12-25T22:25:26.988Z,9.30
2022-12-25T22:27:55.650Z,8.66
2022-12-25T22:30:28.368Z,8.16
2022-12-25T22:32:57.032Z,8.56
2022-12-25T22:35:25.227Z,11.53
2022-12-25T22:37:54.219Z,13.03
2022-12-25T22:40:22.489Z,11.81
2022-12-25T22:42:54.868Z,10.48
2022-12-25T22:45:23.967Z,9.51
2022-12-25T22:47:52.036Z,8.82
2022-12-25T22:50:20.187Z,9.13
2022-12-25T22:52:48.194Z,11.87
2022-12-25T22:55:19.205Z,13.03
2022-12-25T22:57:47.436Z,11.70
2022-12-25T23:00:15.592Z,10.42
2022-12-25T23:02:43.740Z,9.50
2022-12-25T23:05:12.131Z,8.80
2022-12-25T23:07:40.695Z,8.27
2022-12-25T23:10:10.695Z,8.57
2022-12-25T23:12:57.217Z,11.44
2022-12-25T23:15:26.111Z,12.62
2022-12-25T23:18:12.810Z,11.31
2022-12-25T23:20:59.684Z,9.98
2022-12-25T23:23:46.344Z,9.08
2022-12-25T23:26:14.953Z,8.51
2022-12-25T23:29:02.567Z,9.98
2022-12-25T23:31:37.148Z,12.86
2022-12-25T23:34:06.345Z,12.38
2022-12-25T23:36:34.489Z,10.99
2022-12-25T23:39:09.534Z,9.95
2022-12-25T23:41:40.944Z,9.18
2022-12-25T23:44:11.143Z,8.62
2022-12-25T23:46:40.396Z,8.20
2022-12-25T23:49:09.857Z,8.54
2022-12-25T23:51:43.337Z,11.54
2022-12-25T23:54:14.537Z,12.80
2022-12-25T23:56:43.400Z,11.49
2022-12-25T23:59:12.778Z,10.25
